sensor_id;sensor_type;location;lat;lon;timestamp;pressure;altitude;pressure_sealevel;temperature;humidity
55610;BME280;41486;52.502;13.486;2022-11-09T00:01:01;100511.44;;;11.47;90.65
55610;BME280;41486;52.502;13.486;2022-11-09T00:03:29;100503.31;;;11.50;89.77
55610;BME280;41486;52.502;13.486;2022-11-09T00:05:58;100510.81;;;11.55;89.69
55610;BME280;41486;52.502;13.486;2022-11-09T00:08:27;100506.06;;;11.49;90.11
55610;BME280;41486;52.502;13.486;2022-11-09T00:11:01;100508.00;;;11.47;89.98
55610;BME280;41486;52.502;13.486;2022-11-09T00:13:30;100507.03;;;11.48;90.32
55610;BME280;41486;52.502;13.486;2022-11-09T00:15:59;100504.13;;;11.51;90.13
55610;BME280;41486;52.502;13.486;2022-11-09T00:18:29;100504.44;;;11.36;91.73
55610;BME280;41486;52.502;13.486;2022-11-09T00:20:56;100500.81;;;11.49;91.05
55610;BME280;41486;52.502;13.486;2022-11-09T00:23:24;100500.13;;;11.35;91.19
55610;BME280;41486;52.502;13.486;2022-11-09T00:25:52;100501.78;;;11.36;91.60
55610;BME280;41486;52.502;13.486;2022-11-09T00:28:20;100505.88;;;11.41;91.05
55610;BME280;41486;52.502;13.486;2022-11-09T00:30:49;100498.91;;;11.40;91.59
55610;BME280;41486;52.502;13.486;2022-11-09T00:33:17;100498.53;;;11.44;90.79
55610;BME280;41486;52.502;13.486;2022-11-09T00:35:45;100489.91;;;11.42;90.68
55610;BME280;41486;52.502;13.486;2022-11-09T00:38:13;100493.97;;;11.46;90.72
55610;BME280;41486;52.502;13.486;2022-11-09T00:40:42;100496.59;;;11.46;91.42
55610;BME280;41486;52.502;13.486;2022-11-09T00:43:10;100486.44;;;11.42;90.56
55610;BME280;41486;52.502;13.486;2022-11-09T00:45:38;100488.59;;;11.48;89.82
55610;BME280;41486;52.502;13.486;2022-11-09T00:48:08;100490.38;;;11.47;90.80
55610;BME280;41486;52.502;13.486;2022-11-09T00:50:36;100497.69;;;11.44;90.49
55610;BME280;41486;52.502;13.486;2022-11-09T00:53:04;100489.84;;;11.32;91.43
55610;BME280;41486;52.502;13.486;2022-11-09T00:55:32;100496.28;;;11.40;90.84
55610;BME280;41486;52.502;13.486;2022-11-09T00:58:00;100493.44;;;11.31;91.18
55610;BME280;41486;52.502;13.486;2022-11-09T01:00:28;100491.25;;;11.36;90.56
55610;BME280;41486;52.502;13.486;2022-11-09T01:02:56;100480.47;;;11.40;90.56
55610;BME280;41486;52.502;13.486;2022-11-09T01:05:25;100489.34;;;11.39;89.95
55610;BME280;41486;52.502;13.486;2022-11-09T01:07:53;100490.63;;;11.44;89.59
55610;BME280;41486;52.502;13.486;2022-11-09T01:10:21;100483.69;;;11.43;90.19
55610;BME280;41486;52.502;13.486;2022-11-09T01:12:52;100480.41;;;11.51;89.43
55610;BME280;41486;52.502;13.486;2022-11-09T01:15:20;100479.66;;;11.60;88.46
55610;BME280;41486;52.502;13.486;2022-11-09T01:17:48;100486.91;;;11.47;89.16
55610;BME280;41486;52.502;13.486;2022-11-09T01:20:16;100485.22;;;11.46;89.19
55610;BME280;41486;52.502;13.486;2022-11-09T01:22:45;100483.91;;;11.51;88.34
55610;BME280;41486;52.502;13.486;2022-11-09T01:25:13;100483.03;;;11.51;88.44
55610;BME280;41486;52.502;13.486;2022-11-09T01:27:41;100482.03;;;11.42;89.29
55610;BME280;41486;52.502;13.486;2022-11-09T01:30:10;100470.38;;;11.45;89.16
55610;BME280;41486;52.502;13.486;2022-11-09T01:32:38;100464.16;;;11.46;89.00
55610;BME280;41486;52.502;13.486;2022-11-09T01:35:07;100469.81;;;11.41;89.25
55610;BME280;41486;52.502;13.486;2022-11-09T01:37:35;100471.50;;;11.31;89.72
55610;BME280;41486;52.502;13.486;2022-11-09T01:40:05;100465.50;;;11.40;89.01
55610;BME280;41486;52.502;13.486;2022-11-09T01:42:36;100453.28;;;11.39;89.11
55610;BME280;41486;52.502;13.486;2022-11-09T01:45:20;100466.00;;;11.34;89.14
55610;BME280;41486;52.502;13.486;2022-11-09T01:47:52;100470.94;;;11.27;88.88
55610;BME280;41486;52.502;13.486;2022-11-09T01:50:28;100467.59;;;11.46;87.91
55610;BME280;41486;52.502;13.486;2022-11-09T01:53:01;100468.53;;;11.57;86.73
55610;BME280;41486;52.502;13.486;2022-11-09T01:55:32;100468.00;;;11.42;86.96
55610;BME280;41486;52.502;13.486;2022-11-09T01:58:03;100461.75;;;11.43;87.31
55610;BME280;41486;52.502;13.486;2022-11-09T02:00:34;100460.34;;;11.39;86.84
55610;BME280;41486;52.502;13.486;2022-11-09T02:03:07;100454.50;;;11.35;87.20
55610;BME280;41486;52.502;13.486;2022-11-09T02:05:39;100450.72;;;11.28;88.68
55610;BME280;41486;52.502;13.486;2022-11-09T02:08:09;100453.78;;;11.33;87.90
55610;BME280;41486;52.502;13.486;2022-11-09T02:10:44;100453.34;;;11.28;88.62
55610;BME280;41486;52.502;13.486;2022-11-09T02:13:15;100446.19;;;11.18;89.10
55610;BME280;41486;52.502;13.486;2022-11-09T02:15:46;100443.69;;;11.17;89.58
55610;BME280;41486;52.502;13.486;2022-11-09T02:18:15;100439.41;;;11.16;88.98
55610;BME280;41486;52.502;13.486;2022-11-09T02:20:46;100427.41;;;11.12;88.87
55610;BME280;41486;52.502;13.486;2022-11-09T02:23:15;100436.00;;;11.25;88.08
55610;BME280;41486;52.502;13.486;2022-11-09T02:25:48;100430.13;;;11.00;89.63
55610;BME280;41486;52.502;13.486;2022-11-09T02:28:18;100429.25;;;11.00;89.82
55610;BME280;41486;52.502;13.486;2022-11-09T02:30:50;100428.88;;;11.04;89.74
55610;BME280;41486;52.502;13.486;2022-11-09T02:33:20;100438.25;;;10.97;90.09
55610;BME280;41486;52.502;13.486;2022-11-09T02:35:49;100438.75;;;10.91;91.43
55610;BME280;41486;52.502;13.486;2022-11-09T02:38:17;100437.31;;;10.87;90.75
55610;BME280;41486;52.502;13.486;2022-11-09T02:40:48;100433.38;;;10.93;90.45
55610;BME280;41486;52.502;13.486;2022-11-09T02:43:18;100440.50;;;11.02;89.02
55610;BME280;41486;52.502;13.486;2022-11-09T02:45:47;100435.97;;;11.04;89.18
55610;BME280;41486;52.502;13.486;2022-11-09T02:48:15;100425.31;;;10.94;89.73
55610;BME280;41486;52.502;13.486;2022-11-09T02:50:43;100424.38;;;10.95;90.26
55610;BME280;41486;52.502;13.486;2022-11-09T02:53:12;100418.06;;;10.86;90.37
55610;BME280;41486;52.502;13.486;2022-11-09T02:55:43;100418.88;;;10.98;89.72
55610;BME280;41486;52.502;13.486;2022-11-09T02:58:12;100417.13;;;10.87;90.51
55610;BME280;41486;52.502;13.486;2022-11-09T03:00:40;100422.38;;;10.87;90.32
55610;BME280;41486;52.502;13.486;2022-11-09T03:03:08;100425.38;;;10.83;90.77
55610;BME280;41486;52.502;13.486;2022-11-09T03:05:36;100426.19;;;10.95;90.34
55610;BME280;41486;52.502;13.486;2022-11-09T03:08:04;100429.06;;;10.92;90.22
55610;BME280;41486;52.502;13.486;2022-11-09T03:10:35;100429.63;;;10.95;90.06
55610;BME280;41486;52.502;13.486;2022-11-09T03:13:03;100426.19;;;10.95;90.06
55610;BME280;41486;52.502;13.486;2022-11-09T03:15:31;100421.88;;;10.94;89.80
55610;BME280;41486;52.502;13.486;2022-11-09T03:17:58;100422.47;;;10.97;90.07
55610;BME280;41486;52.502;13.486;2022-11-09T03:20:26;100425.47;;;10.93;90.17
55610;BME280;41486;52.502;13.486;2022-11-09T03:22:56;100420.47;;;10.89;90.39
55610;BME280;41486;52.502;13.486;2022-11-09T03:25:25;100408.00;;;10.92;90.07
55610;BME280;41486;52.502;13.486;2022-11-09T03:27:59;100411.84;;;10.87;90.32
55610;BME280;41486;52.502;13.486;2022-11-09T03:30:28;100410.31;;;10.85;90.91
55610;BME280;41486;52.502;13.486;2022-11-09T03:32:57;100414.59;;;10.86;90.89
55610;BME280;41486;52.502;13.486;2022-11-09T03:35:26;100410.63;;;10.92;90.70
55610;BME280;41486;52.502;13.486;2022-11-09T03:37:54;100420.66;;;10.98;90.36
55610;BME280;41486;52.502;13.486;2022-11-09T03:40:23;100415.00;;;11.02;90.00
55610;BME280;41486;52.502;13.486;2022-11-09T03:42:51;100416.88;;;11.12;89.71
55610;BME280;41486;52.502;13.486;2022-11-09T03:45:20;100421.91;;;11.15;89.01
55610;BME280;41486;52.502;13.486;2022-11-09T03:47:48;100427.25;;;11.25;88.84
55610;BME280;41486;52.502;13.486;2022-11-09T03:50:17;100426.50;;;11.34;87.04
55610;BME280;41486;52.502;13.486;2022-11-09T03:52:45;100425.53;;;11.35;87.07
55610;BME280;41486;52.502;13.486;2022-11-09T03:55:13;100430.47;;;11.28;88.15
55610;BME280;41486;52.502;13.486;2022-11-09T03:57:43;100424.28;;;11.18;88.40
55610;BME280;41486;52.502;13.486;2022-11-09T04:00:14;100429.88;;;11.25;88.30
55610;BME280;41486;52.502;13.486;2022-11-09T04:02:44;100432.28;;;11.28;88.80
55610;BME280;41486;52.502;13.486;2022-11-09T04:05:12;100440.19;;;11.28;88.28
55610;BME280;41486;52.502;13.486;2022-11-09T04:07:46;100444.88;;;11.24;88.75
55610;BME280;41486;52.502;13.486;2022-11-09T04:10:14;100450.56;;;11.29;87.70
55610;BME280;41486;52.502;13.486;2022-11-09T04:12:42;100451.22;;;11.43;87.57
55610;BME280;41486;52.502;13.486;2022-11-09T04:15:10;100448.97;;;11.38;88.08
55610;BME280;41486;52.502;13.486;2022-11-09T04:17:38;100439.91;;;11.31;90.84
55610;BME280;41486;52.502;13.486;2022-11-09T04:20:08;100441.84;;;11.50;89.40
55610;BME280;41486;52.502;13.486;2022-11-09T04:22:36;100445.47;;;11.49;88.57
55610;BME280;41486;52.502;13.486;2022-11-09T04:25:04;100437.88;;;11.56;88.45
55610;BME280;41486;52.502;13.486;2022-11-09T04:27:32;100429.75;;;11.47;89.27
55610;BME280;41486;52.502;13.486;2022-11-09T04:30:00;100435.94;;;11.36;90.54
55610;BME280;41486;52.502;13.486;2022-11-09T04:32:28;100420.41;;;11.33;91.41
55610;BME280;41486;52.502;13.486;2022-11-09T04:34:55;100424.38;;;11.28;92.44
55610;BME280;41486;52.502;13.486;2022-11-09T04:37:25;100425.56;;;11.24;93.90
55610;BME280;41486;52.502;13.486;2022-11-09T04:39:52;100425.66;;;11.33;93.60
55610;BME280;41486;52.502;13.486;2022-11-09T04:42:20;100432.00;;;11.31;92.98
55610;BME280;41486;52.502;13.486;2022-11-09T04:44:48;100430.22;;;11.31;95.19
55610;BME280;41486;52.502;13.486;2022-11-09T04:47:16;100425.78;;;11.32;94.03
55610;BME280;41486;52.502;13.486;2022-11-09T04:49:43;100434.78;;;11.50;93.48
55610;BME280;41486;52.502;13.486;2022-11-09T04:52:11;100434.69;;;11.62;93.75
55610;BME280;41486;52.502;13.486;2022-11-09T04:54:40;100437.09;;;11.44;96.29
55610;BME280;41486;52.502;13.486;2022-11-09T04:57:08;100431.00;;;11.43;97.42
55610;BME280;41486;52.502;13.486;2022-11-09T04:59:36;100439.50;;;11.14;100.00
55610;BME280;41486;52.502;13.486;2022-11-09T05:02:04;100435.22;;;11.13;100.00
55610;BME280;41486;52.502;13.486;2022-11-09T05:04:32;100440.00;;;11.08;100.00
55610;BME280;41486;52.502;13.486;2022-11-09T05:07:00;100440.50;;;11.02;100.00
55610;BME280;41486;52.502;13.486;2022-11-09T05:09:27;100444.97;;;11.01;100.00
55610;BME280;41486;52.502;13.486;2022-11-09T05:11:57;100450.88;;;11.15;100.00
55610;BME280;41486;52.502;13.486;2022-11-09T05:14:24;100450.81;;;11.26;100.00
55610;BME280;41486;52.502;13.486;2022-11-09T05:16:52;100440.88;;;10.97;100.00
55610;BME280;41486;52.502;13.486;2022-11-09T05:19:20;100447.91;;;11.08;100.00
55610;BME280;41486;52.502;13.486;2022-11-09T05:21:48;100440.84;;;11.09;100.00
55610;BME280;41486;52.502;13.486;2022-11-09T05:24:16;100446.00;;;10.99;100.00
55610;BME280;41486;52.502;13.486;2022-11-09T05:26:43;100442.19;;;11.03;100.00
55610;BME280;41486;52.502;13.486;2022-11-09T05:29:12;100447.19;;;11.06;100.00
55610;BME280;41486;52.502;13.486;2022-11-09T05:31:40;100448.66;;;11.31;100.00
55610;BME280;41486;52.502;13.486;2022-11-09T05:34:14;100449.66;;;11.19;100.00
55610;BME280;41486;52.502;13.486;2022-11-09T05:36:42;100451.47;;;11.18;100.00
55610;BME280;41486;52.502;13.486;2022-11-09T05:39:10;100444.00;;;11.24;100.00
55610;BME280;41486;52.502;13.486;2022-11-09T05:41:38;100451.59;;;11.17;100.00
55610;BME280;41486;52.502;13.486;2022-11-09T05:44:05;100450.72;;;11.49;100.00
55610;BME280;41486;52.502;13.486;2022-11-09T05:46:35;100451.03;;;11.34;100.00
55610;BME280;41486;52.502;13.486;2022-11-09T05:49:02;100450.78;;;11.38;100.00
55610;BME280;41486;52.502;13.486;2022-11-09T05:51:30;100455.97;;;11.28;100.00
55610;BME280;41486;52.502;13.486;2022-11-09T05:53:58;100460.09;;;11.20;100.00
55610;BME280;41486;52.502;13.486;2022-11-09T05:56:26;100454.50;;;11.35;100.00
55610;BME280;41486;52.502;13.486;2022-11-09T05:58:54;100455.47;;;11.34;100.00
55610;BME280;41486;52.502;13.486;2022-11-09T06:01:22;100453.56;;;11.36;100.00
55610;BME280;41486;52.502;13.486;2022-11-09T06:03:53;100460.31;;;11.17;100.00
55610;BME280;41486;52.502;13.486;2022-11-09T06:06:21;100462.25;;;11.15;100.00
55610;BME280;41486;52.502;13.486;2022-11-09T06:08:50;100459.03;;;11.12;100.00
55610;BME280;41486;52.502;13.486;2022-11-09T06:11:18;100452.63;;;11.26;100.00
55610;BME280;41486;52.502;13.486;2022-11-09T06:13:50;100451.22;;;11.43;100.00
55610;BME280;41486;52.502;13.486;2022-11-09T06:16:19;100462.34;;;11.25;100.00
55610;BME280;41486;52.502;13.486;2022-11-09T06:18:47;100469.75;;;11.20;100.00
55610;BME280;41486;52.502;13.486;2022-11-09T06:21:16;100481.59;;;11.26;100.00
55610;BME280;41486;52.502;13.486;2022-11-09T06:23:44;100476.41;;;11.35;100.00
55610;BME280;41486;52.502;13.486;2022-11-09T06:26:15;100479.69;;;11.28;100.00
55610;BME280;41486;52.502;13.486;2022-11-09T06:28:42;100481.31;;;11.40;100.00
55610;BME280;41486;52.502;13.486;2022-11-09T06:31:12;100483.41;;;11.25;100.00
55610;BME280;41486;52.502;13.486;2022-11-09T06:33:41;100486.56;;;11.40;100.00
55610;BME280;41486;52.502;13.486;2022-11-09T06:36:09;100493.44;;;11.31;100.00
55610;BME280;41486;52.502;13.486;2022-11-09T06:38:39;100484.72;;;11.52;100.00
55610;BME280;41486;52.502;13.486;2022-11-09T06:41:08;100485.13;;;11.68;100.00
55610;BME280;41486;52.502;13.486;2022-11-09T06:43:36;100491.00;;;11.82;100.00
55610;BME280;41486;52.502;13.486;2022-11-09T06:46:04;100492.19;;;11.68;100.00
55610;BME280;41486;52.502;13.486;2022-11-09T06:48:32;100493.94;;;11.79;100.00
55610;BME280;41486;52.502;13.486;2022-11-09T06:51:00;100507.63;;;11.73;100.00
55610;BME280;41486;52.502;13.486;2022-11-09T06:53:30;100499.91;;;11.81;100.00
55610;BME280;41486;52.502;13.486;2022-11-09T06:56:01;100499.06;;;11.80;100.00
55610;BME280;41486;52.502;13.486;2022-11-09T06:58:30;100496.63;;;11.89;100.00
55610;BME280;41486;52.502;13.486;2022-11-09T07:00:58;100499.97;;;11.91;100.00
55610;BME280;41486;52.502;13.486;2022-11-09T07:03:26;100506.66;;;12.16;100.00
55610;BME280;41486;52.502;13.486;2022-11-09T07:05:54;100514.94;;;11.90;100.00
55610;BME280;41486;52.502;13.486;2022-11-09T07:08:22;100520.28;;;11.79;100.00
55610;BME280;41486;52.502;13.486;2022-11-09T07:10:50;100513.22;;;11.79;100.00
55610;BME280;41486;52.502;13.486;2022-11-09T07:13:19;100508.41;;;11.84;100.00
55610;BME280;41486;52.502;13.486;2022-11-09T07:15:51;100510.91;;;11.86;100.00
55610;BME280;41486;52.502;13.486;2022-11-09T07:18:19;100507.03;;;11.90;100.00
55610;BME280;41486;52.502;13.486;2022-11-09T07:20:47;100504.09;;;11.83;100.00
55610;BME280;41486;52.502;13.486;2022-11-09T07:23:15;100498.50;;;11.77;100.00
55610;BME280;41486;52.502;13.486;2022-11-09T07:25:44;100490.00;;;11.73;100.00
55610;BME280;41486;52.502;13.486;2022-11-09T07:28:12;100477.16;;;11.80;100.00
55610;BME280;41486;52.502;13.486;2022-11-09T07:30:41;100464.69;;;11.61;100.00
55610;BME280;41486;52.502;13.486;2022-11-09T07:33:12;100478.09;;;11.58;100.00
55610;BME280;41486;52.502;13.486;2022-11-09T07:35:40;100490.97;;;11.72;100.00
55610;BME280;41486;52.502;13.486;2022-11-09T07:38:09;100475.88;;;11.74;100.00
55610;BME280;41486;52.502;13.486;2022-11-09T07:40:37;100472.84;;;11.58;100.00
55610;BME280;41486;52.502;13.486;2022-11-09T07:43:05;100483.75;;;11.53;100.00
55610;BME280;41486;52.502;13.486;2022-11-09T07:45:36;100470.38;;;11.45;100.00
55610;BME280;41486;52.502;13.486;2022-11-09T07:48:07;100455.22;;;11.37;100.00
55610;BME280;41486;52.502;13.486;2022-11-09T07:50:37;100460.88;;;11.32;100.00
55610;BME280;41486;52.502;13.486;2022-11-09T07:53:05;100485.16;;;11.36;100.00
55610;BME280;41486;52.502;13.486;2022-11-09T07:55:34;100505.91;;;11.29;100.00
55610;BME280;41486;52.502;13.486;2022-11-09T07:58:03;100530.84;;;11.25;100.00
55610;BME280;41486;52.502;13.486;2022-11-09T08:00:33;100521.53;;;11.42;100.00
55610;BME280;41486;52.502;13.486;2022-11-09T08:03:03;100519.66;;;11.33;100.00
55610;BME280;41486;52.502;13.486;2022-11-09T08:05:33;100528.78;;;11.29;100.00
55610;BME280;41486;52.502;13.486;2022-11-09T08:08:04;100524.47;;;11.28;100.00
55610;BME280;41486;52.502;13.486;2022-11-09T08:10:35;100516.66;;;11.26;100.00
55610;BME280;41486;52.502;13.486;2022-11-09T08:13:05;100529.69;;;11.39;100.00
55610;BME280;41486;52.502;13.486;2022-11-09T08:15:34;100522.94;;;11.46;100.00
55610;BME280;41486;52.502;13.486;2022-11-09T08:18:05;100515.94;;;11.35;100.00
55610;BME280;41486;52.502;13.486;2022-11-09T08:20:35;100514.09;;;11.47;100.00
55610;BME280;41486;52.502;13.486;2022-11-09T08:23:03;100527.94;;;11.61;100.00
55610;BME280;41486;52.502;13.486;2022-11-09T08:25:31;100530.00;;;11.57;100.00
55610;BME280;41486;52.502;13.486;2022-11-09T08:28:00;100526.63;;;11.55;100.00
55610;BME280;41486;52.502;13.486;2022-11-09T08:30:29;100516.84;;;11.46;100.00
55610;BME280;41486;52.502;13.486;2022-11-09T08:32:58;100509.88;;;11.56;100.00
55610;BME280;41486;52.502;13.486;2022-11-09T08:35:27;100507.88;;;11.70;100.00
55610;BME280;41486;52.502;13.486;2022-11-09T08:38:00;100502.09;;;11.76;100.00
55610;BME280;41486;52.502;13.486;2022-11-09T08:40:29;100508.50;;;11.83;100.00
55610;BME280;41486;52.502;13.486;2022-11-09T08:43:00;100506.72;;;11.83;100.00
55610;BME280;41486;52.502;13.486;2022-11-09T08:45:31;100520.09;;;11.71;100.00
55610;BME280;41486;52.502;13.486;2022-11-09T08:48:02;100516.75;;;11.68;100.00
55610;BME280;41486;52.502;13.486;2022-11-09T08:50:32;100531.72;;;11.68;100.00
55610;BME280;41486;52.502;13.486;2022-11-09T08:53:02;100533.91;;;11.63;100.00
55610;BME280;41486;52.502;13.486;2022-11-09T08:55:31;100534.94;;;11.72;100.00
55610;BME280;41486;52.502;13.486;2022-11-09T08:58:00;100534.81;;;11.73;100.00
55610;BME280;41486;52.502;13.486;2022-11-09T09:00:28;100531.22;;;11.74;100.00
55610;BME280;41486;52.502;13.486;2022-11-09T09:02:57;100537.31;;;11.75;100.00
55610;BME280;41486;52.502;13.486;2022-11-09T09:05:25;100532.75;;;11.77;100.00
55610;BME280;41486;52.502;13.486;2022-11-09T09:07:53;100534.81;;;11.73;100.00
55610;BME280;41486;52.502;13.486;2022-11-09T09:10:22;100529.41;;;11.96;100.00
55610;BME280;41486;52.502;13.486;2022-11-09T09:12:50;100538.44;;;11.93;100.00
55610;BME280;41486;52.502;13.486;2022-11-09T09:15:21;100536.34;;;11.76;100.00
55610;BME280;41486;52.502;13.486;2022-11-09T09:17:49;100564.25;;;11.78;100.00
55610;BME280;41486;52.502;13.486;2022-11-09T09:20:18;100549.63;;;11.86;100.00
55610;BME280;41486;52.502;13.486;2022-11-09T09:22:45;100563.47;;;11.99;100.00
55610;BME280;41486;52.502;13.486;2022-11-09T09:25:14;100552.94;;;11.88;100.00
55610;BME280;41486;52.502;13.486;2022-11-09T09:27:43;100560.34;;;11.94;100.00
55610;BME280;41486;52.502;13.486;2022-11-09T09:30:12;100549.97;;;12.13;100.00
55610;BME280;41486;52.502;13.486;2022-11-09T09:32:40;100547.84;;;12.07;100.00
55610;BME280;41486;52.502;13.486;2022-11-09T09:35:08;100555.56;;;12.20;100.00
55610;BME280;41486;52.502;13.486;2022-11-09T09:37:37;100553.47;;;12.45;100.00
55610;BME280;41486;52.502;13.486;2022-11-09T09:40:05;100560.69;;;12.22;100.00
55610;BME280;41486;52.502;13.486;2022-11-09T09:42:35;100557.47;;;12.39;100.00
55610;BME280;41486;52.502;13.486;2022-11-09T09:45:09;100567.13;;;12.29;100.00
55610;BME280;41486;52.502;13.486;2022-11-09T09:47:45;100574.84;;;12.21;100.00
55610;BME280;41486;52.502;13.486;2022-11-09T09:50:17;100576.59;;;12.10;100.00
55610;BME280;41486;52.502;13.486;2022-11-09T09:52:52;100567.09;;;12.19;100.00
55610;BME280;41486;52.502;13.486;2022-11-09T09:55:43;100569.84;;;12.18;100.00
55610;BME280;41486;52.502;13.486;2022-11-09T09:58:19;100568.75;;;12.20;100.00
55610;BME280;41486;52.502;13.486;2022-11-09T10:00:56;100586.19;;;12.11;100.00
55610;BME280;41486;52.502;13.486;2022-11-09T10:03:25;100584.06;;;12.05;100.00
55610;BME280;41486;52.502;13.486;2022-11-09T10:05:57;100583.34;;;12.24;100.00
55610;BME280;41486;52.502;13.486;2022-11-09T10:08:30;100580.47;;;12.27;100.00
55610;BME280;41486;52.502;13.486;2022-11-09T10:11:10;100586.91;;;12.13;100.00
55610;BME280;41486;52.502;13.486;2022-11-09T10:13:50;100595.91;;;12.11;100.00
55610;BME280;41486;52.502;13.486;2022-11-09T10:16:31;100588.91;;;12.21;100.00
55610;BME280;41486;52.502;13.486;2022-11-09T10:19:19;100588.19;;;12.19;100.00
55610;BME280;41486;52.502;13.486;2022-11-09T10:21:55;100582.91;;;12.19;100.00
55610;BME280;41486;52.502;13.486;2022-11-09T10:24:33;100589.00;;;12.20;100.00
55610;BME280;41486;52.502;13.486;2022-11-09T10:27:25;100587.91;;;12.22;100.00
55610;BME280;41486;52.502;13.486;2022-11-09T10:29:54;100587.66;;;12.25;100.00
55610;BME280;41486;52.502;13.486;2022-11-09T10:32:29;100584.50;;;12.31;100.00
55610;BME280;41486;52.502;13.486;2022-11-09T10:35:02;100574.59;;;12.45;100.00
55610;BME280;41486;52.502;13.486;2022-11-09T10:37:36;100571.81;;;12.46;100.00
55610;BME280;41486;52.502;13.486;2022-11-09T10:40:12;100565.81;;;12.44;100.00
55610;BME280;41486;52.502;13.486;2022-11-09T10:43:04;100561.09;;;12.48;100.00
55610;BME280;41486;52.502;13.486;2022-11-09T10:45:58;100555.28;;;12.54;100.00
55610;BME280;41486;52.502;13.486;2022-11-09T10:48:51;100556.47;;;12.61;100.00
55610;BME280;41486;52.502;13.486;2022-11-09T10:51:39;100553.72;;;12.83;100.00
55610;BME280;41486;52.502;13.486;2022-11-09T10:54:27;100552.97;;;13.02;100.00
55610;BME280;41486;52.502;13.486;2022-11-09T10:57:16;100547.94;;;13.49;100.00
55610;BME280;41486;52.502;13.486;2022-11-09T11:00:04;100533.19;;;14.33;100.00
55610;BME280;41486;52.502;13.486;2022-11-09T11:02:53;100540.03;;;15.38;92.80
55610;BME280;41486;52.502;13.486;2022-11-09T11:05:41;100529.25;;;15.93;88.85
55610;BME280;41486;52.502;13.486;2022-11-09T11:08:34;100532.81;;;15.66;87.05
55610;BME280;41486;52.502;13.486;2022-11-09T11:11:23;100533.19;;;15.71;87.69
55610;BME280;41486;52.502;13.486;2022-11-09T11:14:27;100525.63;;;17.15;79.52
55610;BME280;41486;52.502;13.486;2022-11-09T11:17:21;100538.13;;;17.31;78.21
55610;BME280;41486;52.502;13.486;2022-11-09T11:20:27;100533.66;;;16.80;79.48
55610;BME280;41486;52.502;13.486;2022-11-09T11:23:17;100526.16;;;17.18;77.03
55610;BME280;41486;52.502;13.486;2022-11-09T11:26:26;100525.84;;;17.38;76.33
55610;BME280;41486;52.502;13.486;2022-11-09T11:29:31;100539.09;;;15.83;85.19
55610;BME280;41486;52.502;13.486;2022-11-09T11:32:20;100527.13;;;15.43;89.15
55610;BME280;41486;52.502;13.486;2022-11-09T11:35:12;100528.25;;;15.04;91.67
55610;BME280;41486;52.502;13.486;2022-11-09T11:38:08;100526.28;;;15.06;92.14
55610;BME280;41486;52.502;13.486;2022-11-09T11:41:12;100534.03;;;15.18;92.02
55610;BME280;41486;52.502;13.486;2022-11-09T11:44:07;100526.09;;;15.18;91.31
55610;BME280;41486;52.502;13.486;2022-11-09T11:47:00;100516.41;;;14.98;91.81
55610;BME280;41486;52.502;13.486;2022-11-09T11:50:09;100515.66;;;14.88;92.66
55610;BME280;41486;52.502;13.486;2022-11-09T11:53:10;100514.72;;;14.51;94.23
55610;BME280;41486;52.502;13.486;2022-11-09T11:56:17;100506.59;;;14.91;93.59
55610;BME280;41486;52.502;13.486;2022-11-09T11:59:29;100506.91;;;15.06;91.29
55610;BME280;41486;52.502;13.486;2022-11-09T12:02:35;100498.44;;;15.20;91.10
55610;BME280;41486;52.502;13.486;2022-11-09T12:05:42;100506.38;;;15.38;90.27
55610;BME280;41486;52.502;13.486;2022-11-09T12:08:42;100499.88;;;15.14;90.68
55610;BME280;41486;52.502;13.486;2022-11-09T12:11:46;100496.31;;;15.06;92.21
55610;BME280;41486;52.502;13.486;2022-11-09T12:14:44;100489.72;;;16.94;81.88
55610;BME280;41486;52.502;13.486;2022-11-09T12:17:43;100492.66;;;18.23;73.64
55610;BME280;41486;52.502;13.486;2022-11-09T12:20:42;100501.19;;;18.58;71.01
55610;BME280;41486;52.502;13.486;2022-11-09T12:23:45;100501.25;;;19.98;65.19
55610;BME280;41486;52.502;13.486;2022-11-09T12:26:46;100502.84;;;18.11;74.54
55610;BME280;41486;52.502;13.486;2022-11-09T12:29:59;100500.25;;;17.78;75.72
55610;BME280;41486;52.502;13.486;2022-11-09T12:32:52;100494.13;;;19.52;67.86
55610;BME280;41486;52.502;13.486;2022-11-09T12:35:45;100501.34;;;19.66;65.55
55610;BME280;41486;52.502;13.486;2022-11-09T12:38:39;100505.31;;;19.70;64.38
55610;BME280;41486;52.502;13.486;2022-11-09T12:41:34;100505.03;;;18.87;68.09
55610;BME280;41486;52.502;13.486;2022-11-09T12:44:28;100502.59;;;18.77;68.86
55610;BME280;41486;52.502;13.486;2022-11-09T12:47:21;100510.34;;;18.00;72.68
55610;BME280;41486;52.502;13.486;2022-11-09T12:50:18;100511.84;;;17.19;75.89
55610;BME280;41486;52.502;13.486;2022-11-09T12:53:06;100509.78;;;18.29;72.22
55610;BME280;41486;52.502;13.486;2022-11-09T12:55:56;100517.69;;;18.54;69.98
55610;BME280;41486;52.502;13.486;2022-11-09T12:58:44;100512.31;;;18.22;71.30
55610;BME280;41486;52.502;13.486;2022-11-09T13:01:47;100509.22;;;17.28;76.60
55610;BME280;41486;52.502;13.486;2022-11-09T13:04:35;100496.84;;;16.94;80.59
55610;BME280;41486;52.502;13.486;2022-11-09T13:07:52;100498.56;;;16.60;82.05
55610;BME280;41486;52.502;13.486;2022-11-09T13:10:38;100496.44;;;16.29;83.68